createdAt,value
2022-09-06T00:05:53.038Z,102140.94
2022-09-06T00:15:54.481Z,102148.03
2022-09-06T00:26:02.471Z,102126.03
2022-09-06T00:36:04.194Z,102115.78
2022-09-06T00:46:08.064Z,102120.06
2022-09-06T00:56:09.826Z,102093.28
2022-09-06T01:06:17.288Z,102102.72
2022-09-06T01:16:31.444Z,102099.81
2022-09-06T01:27:10.119Z,102096.19
2022-09-06T01:37:14.496Z,102094.72
2022-09-06T01:47:53.132Z,102099.72
2022-09-06T01:58:17.734Z,102094.41
2022-09-06T02:08:26.124Z,102093.88
2022-09-06T02:18:49.850Z,102080.25
2022-09-06T02:28:51.753Z,102075.94
2022-09-06T02:38:53.622Z,102068.22
2022-09-06T02:48:55.065Z,102069.78
2022-09-06T02:58:56.678Z,102060.72
2022-09-06T03:08:58.447Z,102061.44
2022-09-06T03:18:59.926Z,102053.63
2022-09-06T03:29:01.294Z,102047.78
2022-09-06T03:39:02.748Z,102054.19
2022-09-06T03:49:04.112Z,102049.25
2022-09-06T03:59:05.531Z,102057.63
2022-09-06T04:09:06.872Z,102046.66
2022-09-06T04:27:16.699Z,102032.31
2022-09-06T04:37:18.119Z,102028.31
2022-09-06T05:09:57.639Z,102023.63
2022-09-06T05:19:59.066Z,102026.59
2022-09-06T05:30:00.547Z,102025.00
2022-09-06T05:40:02.474Z,102034.22
2022-09-06T05:50:04.466Z,102020.75
2022-09-06T06:00:06.610Z,102027.59
2022-09-06T06:10:12.869Z,102015.94
2022-09-06T06:20:14.217Z,102005.00
2022-09-06T06:30:18.479Z,102014.97
2022-09-06T06:40:20.105Z,102010.81
2022-09-06T06:50:21.433Z,102015.84
2022-09-06T07:00:26.342Z,102025.59
2022-09-06T07:10:32.902Z,102031.28
2022-09-06T07:30:55.888Z,102029.50
2022-09-06T07:40:59.860Z,102026.91
2022-09-06T07:51:07.492Z,102026.63
2022-09-06T08:01:19.955Z,102019.94
2022-09-06T08:11:22.173Z,102044.44
2022-09-06T08:21:25.157Z,102051.53
2022-09-06T08:31:28.819Z,102045.75
2022-09-06T08:41:32.150Z,102036.16
2022-09-06T08:51:48.470Z,102045.00
2022-09-06T09:01:49.887Z,102025.88
2022-09-06T09:11:51.544Z,102036.13
2022-09-06T09:21:53.035Z,102030.75
2022-09-06T09:31:55.781Z,102019.94
2022-09-06T09:41:57.396Z,102021.28
2022-09-06T09:52:10.107Z,102002.38
2022-09-06T10:02:19.604Z,101978.09
2022-09-06T10:12:42.489Z,101977.59
2022-09-06T10:22:51.481Z,101984.38
2022-09-06T10:33:06.877Z,101979.53
2022-09-06T10:43:17.230Z,101981.13
2022-09-06T10:53:21.341Z,101975.09
2022-09-06T11:13:51.394Z,101986.38
2022-09-06T11:24:06.895Z,101983.63
2022-09-06T11:34:19.595Z,101985.38
2022-09-06T11:44:49.516Z,101972.94
2022-09-06T11:54:52.711Z,101958.03
2022-09-06T12:05:00.745Z,101939.13
2022-09-06T12:15:27.069Z,101931.88
2022-09-06T12:25:34.613Z,101924.47
2022-09-06T12:45:59.318Z,101915.50
2022-09-06T12:56:09.735Z,101911.91
2022-09-06T13:06:22.139Z,101914.41
2022-09-06T13:17:05.323Z,101894.31
2022-09-06T13:20:28.330Z,101905.75
2022-09-06T13:23:39.459Z,101905.84
2022-09-06T13:26:40.881Z,101891.19
2022-09-06T13:29:54.745Z,101883.47
2022-09-06T13:32:56.195Z,101883.66
2022-09-06T13:36:11.240Z,101875.81
2022-09-06T13:39:28.859Z,101875.69
2022-09-06T13:42:33.233Z,101863.03
2022-09-06T13:45:34.884Z,101862.72
2022-09-06T13:48:37.004Z,101852.84
2022-09-06T13:51:39.214Z,101851.63
2022-09-06T13:54:40.604Z,101860.72
2022-09-06T13:57:42.012Z,101870.75
2022-09-06T14:00:43.480Z,101871.38
2022-09-06T14:03:44.890Z,101873.78
2022-09-06T14:06:46.400Z,101868.41
2022-09-06T14:09:47.780Z,101874.47
2022-09-06T14:12:49.893Z,101871.97
2022-09-06T14:15:51.362Z,101866.75
2022-09-06T14:18:52.885Z,101870.09
2022-09-06T14:21:54.361Z,101867.38
2022-09-06T14:24:55.805Z,101864.75
2022-09-06T14:27:57.240Z,101869.88
2022-09-06T14:31:08.718Z,101855.97
2022-09-06T14:34:10.197Z,101855.72
2022-09-06T14:37:13.627Z,101854.44
2022-09-06T14:40:27.363Z,101854.97
2022-09-06T14:43:29.910Z,101845.25
2022-09-06T14:46:31.433Z,101846.25
2022-09-06T14:49:32.893Z,101848.69
2022-09-06T14:52:34.642Z,101848.31
2022-09-06T14:55:36.107Z,101841.91
2022-09-06T14:58:38.909Z,101833.81
2022-09-06T15:01:41.158Z,101829.16
2022-09-06T15:04:42.685Z,101820.69
2022-09-06T15:07:44.083Z,101819.22
2022-09-06T15:10:53.418Z,101821.84
2022-09-06T15:13:54.876Z,101815.88
2022-09-06T15:16:57.434Z,101808.66
2022-09-06T15:19:58.882Z,101807.97
2022-09-06T15:23:24.240Z,101816.25
2022-09-06T15:26:21.815Z,101803.78
2022-09-06T15:29:23.457Z,101801.91
2022-09-06T15:32:24.876Z,101806.69
2022-09-06T15:35:26.272Z,101802.78
2022-09-06T15:38:27.687Z,101798.88
2022-09-06T15:41:31.495Z,101796.09
2022-09-06T15:44:32.940Z,101790.19
2022-09-06T15:47:34.336Z,101803.22
2022-09-06T15:50:50.715Z,101797.28
2022-09-06T15:53:53.212Z,101792.41
2022-09-06T15:56:54.635Z,101784.19
2022-09-06T15:59:56.048Z,101788.97
2022-09-06T16:02:57.544Z,101779.28
2022-09-06T16:09:28.332Z,101765.34
2022-09-06T16:12:29.749Z,101763.81
2022-09-06T16:15:31.165Z,101750.94
2022-09-06T16:18:34.296Z,101750.50
2022-09-06T16:21:38.617Z,101746.19
2022-09-06T16:24:40.038Z,101749.75
2022-09-06T16:27:41.445Z,101743.81
2022-09-06T16:30:43.220Z,101746.31
2022-09-06T16:33:45.157Z,101746.53
2022-09-06T16:36:46.589Z,101749.16
2022-09-06T16:39:48.063Z,101748.84
2022-09-06T16:42:49.706Z,101744.78
2022-09-06T16:46:01.610Z,101743.38
2022-09-06T16:49:03.214Z,101735.72
2022-09-06T16:52:04.688Z,101743.13
2022-09-06T16:55:06.923Z,101744.91
2022-09-06T16:58:08.334Z,101737.53
2022-09-06T17:01:10.665Z,101735.97
2022-09-06T17:04:12.594Z,101746.09
2022-09-06T17:07:14.027Z,101734.31
2022-09-06T17:10:15.515Z,101740.84
2022-09-06T17:13:16.976Z,101736.81
2022-09-06T17:16:22.333Z,101731.06
2022-09-06T17:19:23.951Z,101725.34
2022-09-06T17:22:25.407Z,101722.72
2022-09-06T17:25:26.818Z,101717.00
2022-09-06T17:28:28.596Z,101718.31
2022-09-06T17:31:30.653Z,101714.56
2022-09-06T17:34:32.168Z,101711.63
2022-09-06T17:37:33.620Z,101711.69
2022-09-06T17:40:35.083Z,101713.13
2022-09-06T17:43:37.587Z,101720.28
2022-09-06T17:46:52.036Z,101712.03
2022-09-06T17:49:58.811Z,101724.63
2022-09-06T17:53:00.472Z,101724.25
2022-09-06T17:56:12.937Z,101732.69
2022-09-06T17:59:14.636Z,101727.69
2022-09-06T18:02:16.048Z,101728.63
2022-09-06T18:05:18.083Z,101740.97
2022-09-06T18:08:19.542Z,101733.91
2022-09-06T18:11:22.505Z,101731.66
2022-09-06T18:14:23.904Z,101727.22
2022-09-06T18:17:25.305Z,101738.59
2022-09-06T18:20:26.853Z,101735.13
2022-09-06T18:23:29.546Z,101721.53
2022-09-06T18:26:31.309Z,101731.16
2022-09-06T18:29:32.765Z,101730.34
2022-09-06T18:32:34.202Z,101735.81
2022-09-06T18:35:40.929Z,101739.66
2022-09-06T18:38:42.745Z,101736.47
2022-09-06T18:41:44.246Z,101748.91
2022-09-06T18:44:45.695Z,101750.81
2022-09-06T18:47:47.166Z,101759.06
2022-09-06T18:50:48.595Z,101766.44
2022-09-06T18:53:50.015Z,101764.88
2022-09-06T18:56:51.649Z,101761.50
2022-09-06T18:59:53.066Z,101757.31
2022-09-06T19:02:54.510Z,101758.47
2022-09-06T19:05:55.925Z,101759.13
2022-09-06T19:08:59.630Z,101766.22
2022-09-06T19:12:01.211Z,101761.94
2022-09-06T19:15:02.747Z,101765.72
2022-09-06T19:18:04.300Z,101768.63
2022-09-06T19:21:08.907Z,101773.25
2022-09-06T19:24:11.811Z,101760.31
2022-09-06T19:27:13.227Z,101753.81
2022-09-06T19:30:14.809Z,101747.66
2022-09-06T19:33:16.228Z,101740.75
2022-09-06T19:36:19.392Z,101745.88
2022-09-06T19:39:21.016Z,101735.72
2022-09-06T19:42:22.445Z,101739.50
2022-09-06T19:45:23.992Z,101735.00
2022-09-06T19:48:25.497Z,101741.19
2022-09-06T19:51:27.132Z,101727.69
2022-09-06T19:54:28.556Z,101742.84
2022-09-06T19:57:29.996Z,101729.78
2022-09-06T20:00:35.386Z,101736.06
2022-09-06T20:03:38.281Z,101738.88
2022-09-06T20:06:39.809Z,101737.84
2022-09-06T20:09:41.442Z,101728.31
2022-09-06T20:12:43.257Z,101732.00
2022-09-06T20:15:44.695Z,101727.50
2022-09-06T20:18:46.225Z,101729.47
2022-09-06T20:21:47.693Z,101729.28
2022-09-06T20:24:49.097Z,101726.78
2022-09-06T20:27:50.542Z,101726.25
2022-09-06T20:30:51.954Z,101727.25
2022-09-06T20:33:53.745Z,101731.78
2022-09-06T20:36:55.151Z,101719.44
2022-09-06T20:39:56.583Z,101722.16
2022-09-06T20:42:58.016Z,101717.84
2022-09-06T20:46:00.603Z,101713.25
2022-09-06T20:49:03.043Z,101712.53
2022-09-06T20:52:04.447Z,101718.50
2022-09-06T20:55:06.515Z,101712.38
2022-09-06T20:58:07.907Z,101703.56
2022-09-06T21:01:14.387Z,101705.13
2022-09-06T21:04:16.830Z,101691.97
2022-09-06T21:07:18.270Z,101686.28
2022-09-06T21:10:19.687Z,101681.19
2022-09-06T21:13:21.074Z,101673.19
2022-09-06T21:16:25.207Z,101667.00
2022-09-06T21:19:26.867Z,101674.19
2022-09-06T21:22:28.290Z,101675.00
2022-09-06T21:25:29.755Z,101666.34
2022-09-06T21:28:34.120Z,101666.25
2022-09-06T21:31:36.903Z,101657.56
2022-09-06T21:34:38.399Z,101665.50
2022-09-06T21:37:39.831Z,101657.78
2022-09-06T21:40:41.234Z,101659.66
2022-09-06T21:43:43.485Z,101652.44
2022-09-06T21:46:45.078Z,101643.16
2022-09-06T21:49:46.519Z,101651.09
2022-09-06T21:52:47.979Z,101651.09
2022-09-06T21:55:49.793Z,101646.81
2022-09-06T21:58:56.392Z,101641.09
2022-09-06T22:01:57.877Z,101635.97
2022-09-06T22:04:59.299Z,101628.03
2022-09-06T22:08:00.966Z,101625.41
2022-09-06T22:11:15.220Z,101617.75
2022-09-06T22:14:16.646Z,101620.28
2022-09-06T22:17:18.071Z,101614.00
2022-09-06T22:20:19.502Z,101610.03
2022-09-06T22:23:20.895Z,101611.50
2022-09-06T22:26:23.318Z,101606.38
2022-09-06T22:29:24.718Z,101596.06
2022-09-06T22:32:26.144Z,101600.44
2022-09-06T22:35:27.566Z,101610.38
2022-09-06T22:38:30.400Z,101609.53
2022-09-06T22:41:32.916Z,101612.06
2022-09-06T22:44:34.417Z,101614.03
2022-09-06T22:47:35.812Z,101614.25
2022-09-06T22:50:37.215Z,101618.44
2022-09-06T22:53:38.631Z,101609.34
2022-09-06T22:56:40.276Z,101597.00
2022-09-06T22:59:41.720Z,101599.84
2022-09-06T23:02:43.156Z,101593.56
2022-09-06T23:05:44.584Z,101591.38
2022-09-06T23:08:46.027Z,101594.91
2022-09-06T23:11:47.448Z,101602.13
2022-09-06T23:14:48.848Z,101594.53
2022-09-06T23:17:50.968Z,101587.09
2022-09-06T23:20:52.368Z,101599.53
2022-09-06T23:23:55.569Z,101587.00
2022-09-06T23:26:57.012Z,101576.88
2022-09-06T23:29:58.437Z,101571.97
2022-09-06T23:32:59.845Z,101589.19
2022-09-06T23:36:01.434Z,101581.56
2022-09-06T23:39:02.896Z,101589.19
2022-09-06T23:42:04.356Z,101586.50
2022-09-06T23:45:06.412Z,101584.06
2022-09-06T23:48:07.816Z,101582.50
2022-09-06T23:51:09.782Z,101588.78
2022-09-06T23:54:11.193Z,101589.06
2022-09-06T23:57:12.592Z,101578.22
